createdAt,value
2017-10-28T00:00:12.063Z,0
2017-10-28T00:00:52.669Z,0
2017-10-28T00:01:33.255Z,0
2017-10-28T00:02:13.883Z,0
2017-10-28T00:02:54.504Z,0
2017-10-28T00:03:35.128Z,0
2017-10-28T00:04:15.726Z,0
2017-10-28T00:04:56.327Z,0
2017-10-28T00:05:36.906Z,0
2017-10-28T00:06:17.493Z,0
2017-10-28T00:06:58.129Z,0
2017-10-28T00:07:38.741Z,0
2017-10-28T00:08:19.342Z,0
2017-10-28T00:08:59.946Z,0
2017-10-28T00:09:40.556Z,0
2017-10-28T00:10:21.167Z,0
2017-10-28T00:11:01.808Z,0
2017-10-28T00:11:42.391Z,0
2017-10-28T00:12:22.969Z,0
2017-10-28T00:13:03.552Z,0
2017-10-28T00:13:44.153Z,0
2017-10-28T00:14:24.767Z,0
2017-10-28T00:15:05.359Z,0
2017-10-28T00:15:45.934Z,0
2017-10-28T00:16:26.523Z,0
2017-10-28T00:17:07.131Z,0
2017-10-28T00:17:47.731Z,0
2017-10-28T00:18:28.338Z,0
2017-10-28T00:19:08.932Z,0
2017-10-28T00:19:49.538Z,0
2017-10-28T00:20:30.124Z,0
2017-10-28T00:21:10.709Z,0
2017-10-28T00:21:51.299Z,0
2017-10-28T00:22:31.871Z,0
2017-10-28T00:23:12.463Z,0
2017-10-28T00:23:53.052Z,0
2017-10-28T00:24:33.646Z,0
2017-10-28T00:25:14.231Z,0
2017-10-28T00:25:54.820Z,0
2017-10-28T00:26:35.383Z,0
2017-10-28T00:27:15.947Z,0
2017-10-28T00:27:56.535Z,0
2017-10-28T00:28:37.138Z,0
2017-10-28T00:29:17.732Z,0
2017-10-28T00:29:58.346Z,0
2017-10-28T00:30:38.989Z,0
2017-10-28T00:31:19.608Z,0
2017-10-28T00:32:01.154Z,0
2017-10-28T00:32:41.742Z,0
2017-10-28T00:33:22.349Z,0
2017-10-28T00:34:02.941Z,0
2017-10-28T00:34:43.551Z,0
2017-10-28T00:35:24.164Z,0
2017-10-28T00:36:04.788Z,0
2017-10-28T00:36:45.387Z,0
2017-10-28T00:37:25.969Z,0
2017-10-28T00:38:06.541Z,0
2017-10-28T00:38:47.129Z,0
2017-10-28T00:39:27.707Z,0
2017-10-28T00:40:08.297Z,0
2017-10-28T00:40:48.871Z,0
2017-10-28T00:41:29.457Z,0
2017-10-28T00:42:10.041Z,0
2017-10-28T00:42:50.621Z,0
2017-10-28T00:43:31.187Z,0
2017-10-28T00:44:11.794Z,0
2017-10-28T00:44:52.389Z,0
2017-10-28T00:45:32.975Z,0
2017-10-28T00:46:13.587Z,0
2017-10-28T00:46:54.147Z,0
2017-10-28T00:47:34.719Z,0
2017-10-28T00:48:15.300Z,0
2017-10-28T00:48:55.863Z,0
2017-10-28T00:49:36.459Z,0
2017-10-28T00:50:17.039Z,0
2017-10-28T00:50:57.628Z,0
2017-10-28T00:51:38.234Z,0
2017-10-28T00:52:18.818Z,0
2017-10-28T00:52:59.409Z,0
2017-10-28T00:53:39.979Z,0
2017-10-28T00:54:20.550Z,0
2017-10-28T00:55:01.129Z,0
2017-10-28T00:55:41.720Z,0
2017-10-28T00:56:22.280Z,0
2017-10-28T00:57:02.857Z,0
2017-10-28T00:57:43.429Z,0
2017-10-28T00:58:24.012Z,0
2017-10-28T00:59:04.573Z,0
2017-10-28T00:59:45.138Z,0
2017-10-28T01:00:25.712Z,0
2017-10-28T01:01:06.288Z,0
2017-10-28T01:01:46.866Z,0
2017-10-28T01:02:27.435Z,0
2017-10-28T01:03:08.009Z,0
2017-10-28T01:03:48.616Z,0
2017-10-28T01:04:29.231Z,0
2017-10-28T01:05:09.794Z,0
2017-10-28T01:05:50.375Z,0
2017-10-28T01:06:30.962Z,0
2017-10-28T01:07:11.541Z,0
2017-10-28T01:07:52.131Z,0
2017-10-28T01:08:32.722Z,0
2017-10-28T01:09:13.295Z,0
2017-10-28T01:09:54.112Z,0
2017-10-28T01:12:07.318Z,0
2017-10-28T01:12:47.865Z,0
2017-10-28T01:13:28.454Z,0
2017-10-28T01:14:09.041Z,0
2017-10-28T01:14:49.645Z,0
2017-10-28T01:15:30.195Z,0
2017-10-28T01:16:10.759Z,0
2017-10-28T01:16:51.380Z,0
2017-10-28T01:17:31.993Z,0
2017-10-28T01:18:12.601Z,0
2017-10-28T01:18:53.184Z,0
2017-10-28T01:19:33.758Z,0
2017-10-28T01:20:14.361Z,0
2017-10-28T01:20:55.055Z,0
2017-10-28T01:21:35.831Z,0
2017-10-28T01:22:16.546Z,0
2017-10-28T01:22:57.452Z,0
2017-10-28T01:23:38.091Z,0
2017-10-28T01:24:18.667Z,0
2017-10-28T01:24:59.216Z,0
2017-10-28T01:25:39.788Z,0
2017-10-28T01:26:20.371Z,0
2017-10-28T01:27:00.950Z,0
2017-10-28T01:27:41.513Z,0
2017-10-28T01:28:22.079Z,0
2017-10-28T01:29:02.646Z,0
2017-10-28T01:29:43.269Z,0
2017-10-28T01:30:23.861Z,0
2017-10-28T01:31:04.636Z,0
2017-10-28T01:31:45.232Z,0
2017-10-28T01:32:25.849Z,0
2017-10-28T01:33:06.435Z,0
2017-10-28T01:33:47.064Z,0
2017-10-28T01:34:27.644Z,0
2017-10-28T01:35:08.202Z,0
2017-10-28T01:35:48.762Z,0
2017-10-28T01:36:29.363Z,0
2017-10-28T01:37:09.938Z,0
2017-10-28T01:37:50.501Z,0
2017-10-28T01:38:31.113Z,0
2017-10-28T01:39:11.703Z,0
2017-10-28T01:39:52.256Z,0
2017-10-28T01:40:32.819Z,0
2017-10-28T01:41:13.429Z,0
2017-10-28T01:41:53.992Z,0
2017-10-28T01:42:34.554Z,0
2017-10-28T01:43:15.196Z,0
2017-10-28T01:43:55.773Z,0
2017-10-28T01:44:36.375Z,0
2017-10-28T01:45:17.040Z,0
2017-10-28T01:45:57.614Z,0
2017-10-28T01:46:38.224Z,0
2017-10-28T01:47:18.852Z,0
2017-10-28T01:47:59.445Z,0
2017-10-28T01:48:40.038Z,0
2017-10-28T01:49:20.608Z,0
2017-10-28T01:50:01.199Z,0
2017-10-28T01:50:41.760Z,0
2017-10-28T01:51:22.327Z,0
2017-10-28T01:52:02.891Z,0
2017-10-28T01:52:43.459Z,0
2017-10-28T01:53:24.056Z,0
2017-10-28T01:54:04.657Z,0
2017-10-28T01:54:45.236Z,0
2017-10-28T01:55:25.800Z,0
2017-10-28T01:56:06.389Z,0
2017-10-28T01:56:46.952Z,0
2017-10-28T01:57:27.540Z,0
2017-10-28T01:58:08.129Z,0
2017-10-28T01:58:48.716Z,0
2017-10-28T01:59:29.368Z,0
2017-10-28T02:00:09.934Z,0
2017-10-28T02:00:50.528Z,0
2017-10-28T02:01:31.119Z,0
2017-10-28T02:02:11.765Z,0
2017-10-28T02:02:52.337Z,0
2017-10-28T02:03:33.119Z,0
2017-10-28T02:04:13.696Z,0
2017-10-28T02:04:54.297Z,0
2017-10-28T02:05:34.884Z,0
2017-10-28T02:06:16.222Z,0
2017-10-28T02:06:56.777Z,0
2017-10-28T02:07:37.352Z,0
2017-10-28T02:08:17.930Z,0
2017-10-28T02:08:58.490Z,0
2017-10-28T02:09:39.054Z,0
2017-10-28T02:10:19.611Z,0
2017-10-28T02:11:00.178Z,0
2017-10-28T02:11:40.793Z,0
2017-10-28T02:12:21.343Z,0
2017-10-28T02:13:01.918Z,0
2017-10-28T02:13:42.483Z,0
2017-10-28T02:14:23.051Z,0
2017-10-28T02:15:03.636Z,0
2017-10-28T02:15:44.213Z,0
2017-10-28T02:16:24.841Z,0
2017-10-28T02:17:05.419Z,0
2017-10-28T02:17:45.997Z,0
2017-10-28T02:18:26.575Z,0
2017-10-28T02:19:07.134Z,0
2017-10-28T02:19:47.707Z,0
2017-10-28T02:20:28.292Z,0
2017-10-28T02:21:08.852Z,0
2017-10-28T02:21:49.428Z,0
2017-10-28T02:22:29.998Z,0
2017-10-28T02:23:10.607Z,0
2017-10-28T02:23:51.208Z,0
2017-10-28T02:24:31.780Z,0
2017-10-28T02:25:12.339Z,0
2017-10-28T02:25:52.905Z,0
2017-10-28T02:26:33.484Z,0
2017-10-28T02:27:14.100Z,0
2017-10-28T02:27:54.657Z,0
2017-10-28T02:28:35.244Z,0
2017-10-28T02:29:15.815Z,0
2017-10-28T02:29:56.378Z,0
2017-10-28T02:30:36.982Z,0
2017-10-28T02:31:17.553Z,0
2017-10-28T02:31:58.159Z,0
2017-10-28T02:32:38.758Z,0
2017-10-28T02:33:19.342Z,0
2017-10-28T02:33:59.932Z,0
2017-10-28T02:34:40.508Z,0
2017-10-28T02:35:21.077Z,0
2017-10-28T02:36:01.666Z,0
2017-10-28T02:36:42.238Z,0
2017-10-28T02:37:22.805Z,0
2017-10-28T02:38:03.376Z,0
2017-10-28T02:38:43.965Z,0
2017-10-28T02:39:24.549Z,0
2017-10-28T02:40:05.112Z,0
2017-10-28T02:40:45.726Z,0
2017-10-28T02:41:26.293Z,0
2017-10-28T02:42:06.885Z,0
2017-10-28T02:42:47.448Z,0
2017-10-28T02:43:28.070Z,0
2017-10-28T02:44:08.643Z,0
2017-10-28T02:44:49.225Z,0
2017-10-28T02:45:29.893Z,0
2017-10-28T02:46:10.466Z,0
2017-10-28T02:46:51.051Z,0
2017-10-28T02:47:31.656Z,0
2017-10-28T02:48:12.273Z,0
2017-10-28T02:48:52.851Z,0
2017-10-28T02:49:33.425Z,0
2017-10-28T02:50:14.081Z,0
2017-10-28T02:50:54.661Z,0
2017-10-28T02:51:35.236Z,0
2017-10-28T02:52:15.838Z,0
2017-10-28T02:52:56.406Z,0
2017-10-28T02:53:36.978Z,0
2017-10-28T02:54:17.556Z,0
2017-10-28T02:54:58.144Z,0
2017-10-28T02:55:38.712Z,0
2017-10-28T02:56:19.310Z,0
2017-10-28T02:56:59.881Z,0
2017-10-28T02:57:40.430Z,0
2017-10-28T02:58:20.996Z,0
2017-10-28T02:59:01.577Z,0
2017-10-28T02:59:42.179Z,0
2017-10-28T03:00:22.755Z,0
2017-10-28T03:01:03.327Z,0
2017-10-28T03:01:43.887Z,0
2017-10-28T03:02:24.449Z,0
2017-10-28T03:03:05.023Z,0
2017-10-28T03:03:45.595Z,0
2017-10-28T03:04:26.185Z,0
2017-10-28T03:05:06.753Z,0
2017-10-28T03:05:47.322Z,0
2017-10-28T03:06:28.130Z,0
2017-10-28T03:07:08.761Z,0
2017-10-28T03:07:49.342Z,0
2017-10-28T03:08:29.922Z,0
2017-10-28T03:09:10.494Z,0
2017-10-28T03:09:51.091Z,0
2017-10-28T03:10:31.663Z,0
2017-10-28T03:11:12.227Z,0
2017-10-28T03:11:52.992Z,0
2017-10-28T03:12:33.556Z,0
2017-10-28T03:13:14.159Z,0
2017-10-28T03:13:54.707Z,0
2017-10-28T03:14:35.268Z,0
2017-10-28T03:15:15.859Z,0
2017-10-28T03:15:56.421Z,0
2017-10-28T03:16:36.994Z,0
2017-10-28T03:17:17.598Z,0
2017-10-28T03:17:58.183Z,0
2017-10-28T03:18:38.794Z,0
2017-10-28T03:19:19.430Z,0
2017-10-28T03:20:00.005Z,0
2017-10-28T03:20:40.591Z,0
2017-10-28T03:21:21.160Z,0
2017-10-28T03:22:01.729Z,0
2017-10-28T03:22:42.304Z,0
2017-10-28T03:23:22.903Z,0
2017-10-28T03:24:03.480Z,0
2017-10-28T03:24:44.074Z,0
2017-10-28T03:25:24.667Z,0
2017-10-28T03:26:05.262Z,0
2017-10-28T03:26:45.827Z,0
2017-10-28T03:27:26.427Z,0
2017-10-28T03:28:06.996Z,0
2017-10-28T03:28:47.562Z,0
2017-10-28T03:29:28.132Z,0
2017-10-28T03:30:08.707Z,0
2017-10-28T03:30:49.272Z,0
2017-10-28T03:31:29.835Z,0
2017-10-28T03:32:10.399Z,0
2017-10-28T03:32:50.970Z,0
2017-10-28T03:33:31.538Z,0
2017-10-28T03:34:12.103Z,0
2017-10-28T03:34:52.683Z,0
2017-10-28T03:35:33.272Z,0
2017-10-28T03:36:13.834Z,0
2017-10-28T03:36:54.402Z,0
2017-10-28T03:37:34.971Z,0
2017-10-28T03:38:15.557Z,0
2017-10-28T03:38:56.118Z,0
2017-10-28T03:39:36.700Z,0
2017-10-28T03:40:17.279Z,0
2017-10-28T03:40:57.867Z,0
2017-10-28T03:41:38.442Z,0
2017-10-28T03:42:19.011Z,0
2017-10-28T03:42:59.582Z,0
2017-10-28T03:43:40.156Z,0
2017-10-28T03:44:20.754Z,0
2017-10-28T03:45:01.327Z,0
2017-10-28T03:45:41.884Z,0
2017-10-28T03:46:22.468Z,0
2017-10-28T03:47:03.039Z,0
2017-10-28T03:47:43.599Z,0
2017-10-28T03:48:24.174Z,0
2017-10-28T03:49:04.730Z,0
2017-10-28T03:49:45.294Z,0
2017-10-28T03:50:25.870Z,0
2017-10-28T03:51:06.437Z,0
2017-10-28T03:51:47.002Z,0
2017-10-28T03:52:27.579Z,0
2017-10-28T03:53:08.177Z,0
2017-10-28T03:53:48.752Z,0
2017-10-28T03:54:29.324Z,0
2017-10-28T03:55:09.906Z,0
2017-10-28T03:55:50.455Z,0
2017-10-28T03:56:31.043Z,0
2017-10-28T03:57:11.594Z,0
2017-10-28T03:57:52.159Z,0
2017-10-28T03:58:32.779Z,0
2017-10-28T03:59:13.353Z,0
2017-10-28T03:59:53.919Z,0
2017-10-28T04:00:34.501Z,0
2017-10-28T04:01:15.070Z,0
2017-10-28T04:01:55.635Z,0
2017-10-28T04:02:36.211Z,0
2017-10-28T04:03:16.775Z,0
2017-10-28T04:03:57.366Z,0
2017-10-28T04:04:37.942Z,0
2017-10-28T04:05:18.511Z,0
2017-10-28T04:05:59.072Z,0
2017-10-28T04:06:39.662Z,0
2017-10-28T04:07:20.248Z,0
2017-10-28T04:08:00.814Z,0
2017-10-28T04:08:41.394Z,0
2017-10-28T04:09:21.962Z,0
2017-10-28T04:10:02.533Z,0
2017-10-28T04:10:43.099Z,0
2017-10-28T04:11:23.660Z,0
2017-10-28T04:12:04.249Z,0
2017-10-28T04:12:44.828Z,0
2017-10-28T04:13:25.404Z,0
2017-10-28T04:14:05.972Z,0
2017-10-28T04:14:46.541Z,0
2017-10-28T04:15:27.127Z,0
2017-10-28T04:16:07.701Z,0
2017-10-28T04:16:48.254Z,0
2017-10-28T04:17:28.835Z,0
2017-10-28T04:18:09.420Z,0
2017-10-28T04:18:49.995Z,0
2017-10-28T04:19:30.567Z,0
2017-10-28T04:20:11.177Z,0
2017-10-28T04:20:51.764Z,0
2017-10-28T04:21:32.332Z,0
2017-10-28T04:22:12.913Z,0
2017-10-28T04:22:53.491Z,0
2017-10-28T04:23:34.066Z,0
2017-10-28T04:24:14.641Z,0
2017-10-28T04:24:55.217Z,0
2017-10-28T04:25:35.798Z,0
2017-10-28T04:26:16.358Z,0
2017-10-28T04:26:56.950Z,0
2017-10-28T04:27:37.550Z,0
2017-10-28T04:28:18.128Z,0
2017-10-28T04:28:58.711Z,0
2017-10-28T04:29:39.309Z,0
2017-10-28T04:30:19.911Z,0
2017-10-28T04:31:00.490Z,0
2017-10-28T04:31:41.063Z,0
2017-10-28T04:32:21.643Z,0
2017-10-28T04:33:02.274Z,0
2017-10-28T04:33:42.882Z,0
2017-10-28T04:34:23.480Z,0
2017-10-28T04:35:04.058Z,0
2017-10-28T04:35:44.622Z,0
2017-10-28T04:36:25.200Z,0
2017-10-28T04:37:05.769Z,0
2017-10-28T04:37:46.352Z,0
2017-10-28T04:38:26.919Z,0
2017-10-28T04:39:07.525Z,0
2017-10-28T04:39:48.105Z,0
2017-10-28T04:40:28.688Z,0
2017-10-28T04:41:09.266Z,0
2017-10-28T04:41:49.831Z,0
2017-10-28T04:42:30.392Z,0
2017-10-28T04:43:10.999Z,0
2017-10-28T04:43:51.600Z,0
2017-10-28T04:44:32.150Z,0
2017-10-28T04:45:12.743Z,0
2017-10-28T04:45:53.330Z,0
2017-10-28T04:46:33.907Z,0
2017-10-28T04:47:14.496Z,0
2017-10-28T04:47:55.094Z,0
2017-10-28T04:48:35.663Z,0
2017-10-28T04:49:16.236Z,0
2017-10-28T04:49:56.811Z,0
2017-10-28T04:50:37.422Z,0
2017-10-28T04:51:17.970Z,0
2017-10-28T04:51:58.569Z,0
2017-10-28T04:52:39.174Z,0
2017-10-28T04:53:19.781Z,0
2017-10-28T04:54:00.363Z,0
2017-10-28T04:54:40.981Z,0
2017-10-28T04:55:21.587Z,0
2017-10-28T04:56:02.178Z,0
2017-10-28T04:56:42.755Z,0
2017-10-28T04:57:23.361Z,0
2017-10-28T04:58:03.956Z,0
2017-10-28T04:58:44.527Z,0
2017-10-28T04:59:25.117Z,0
2017-10-28T05:00:05.671Z,0
2017-10-28T05:00:46.245Z,0
2017-10-28T05:01:26.841Z,0
2017-10-28T05:02:07.426Z,0
2017-10-28T05:02:48.005Z,0
2017-10-28T05:03:28.582Z,0
2017-10-28T05:04:09.165Z,0
2017-10-28T05:04:49.766Z,0
2017-10-28T05:05:30.364Z,0
2017-10-28T05:06:10.978Z,0
2017-10-28T05:06:51.580Z,0
2017-10-28T05:07:32.177Z,0
2017-10-28T05:08:12.748Z,0
2017-10-28T05:08:53.345Z,0
2017-10-28T05:09:33.932Z,0
2017-10-28T05:10:14.543Z,0
2017-10-28T05:10:55.144Z,0
2017-10-28T05:11:35.757Z,0
2017-10-28T05:12:16.349Z,0
2017-10-28T05:12:56.930Z,0
2017-10-28T05:13:37.647Z,0
2017-10-28T05:14:18.264Z,0
2017-10-28T05:14:58.884Z,0
2017-10-28T05:15:39.535Z,0
2017-10-28T05:16:20.109Z,0
2017-10-28T05:17:00.720Z,0
2017-10-28T05:17:41.310Z,0
2017-10-28T05:18:21.926Z,0
2017-10-28T05:19:02.520Z,0
2017-10-28T05:19:43.121Z,0
2017-10-28T05:20:23.713Z,0
2017-10-28T05:21:04.279Z,0
2017-10-28T05:21:44.870Z,0
2017-10-28T05:22:25.443Z,0
2017-10-28T05:23:06.011Z,0
2017-10-28T05:23:46.571Z,0
2017-10-28T05:24:27.182Z,0
2017-10-28T05:25:07.771Z,0
2017-10-28T05:25:48.403Z,0
2017-10-28T05:26:28.926Z,0
2017-10-28T05:27:09.544Z,0
2017-10-28T05:27:50.112Z,0
2017-10-28T05:28:30.683Z,0
2017-10-28T05:29:11.275Z,0
2017-10-28T05:29:51.839Z,0
2017-10-28T05:30:32.435Z,0
2017-10-28T05:31:13.014Z,0
2017-10-28T05:31:53.588Z,0
2017-10-28T05:32:34.166Z,0
2017-10-28T05:33:14.749Z,0
2017-10-28T05:33:55.322Z,0
2017-10-28T05:34:35.904Z,0
2017-10-28T05:35:16.521Z,4
2017-10-28T05:35:57.108Z,4
2017-10-28T05:36:37.676Z,4
2017-10-28T05:37:18.259Z,4
2017-10-28T05:37:58.876Z,4
2017-10-28T05:38:39.455Z,4
2017-10-28T05:39:20.053Z,4
2017-10-28T05:40:00.630Z,4
2017-10-28T05:40:41.223Z,4
2017-10-28T05:41:21.805Z,4
2017-10-28T05:42:02.381Z,8
2017-10-28T05:42:42.985Z,4
2017-10-28T05:43:24.079Z,4
2017-10-28T05:44:04.659Z,4
2017-10-28T05:44:45.265Z,4
2017-10-28T05:45:25.865Z,8
2017-10-28T05:46:06.698Z,8
2017-10-28T05:46:47.309Z,12
2017-10-28T05:47:27.910Z,12
2017-10-28T05:48:08.491Z,12
2017-10-28T05:48:49.104Z,12
2017-10-28T05:49:29.659Z,20
2017-10-28T05:50:10.240Z,24
2017-10-28T05:50:50.801Z,28
2017-10-28T05:51:31.376Z,24
2017-10-28T05:52:11.954Z,28
2017-10-28T05:52:52.533Z,24
2017-10-28T05:53:33.137Z,24
2017-10-28T05:54:13.698Z,28
2017-10-28T05:54:54.287Z,32
2017-10-28T05:55:34.867Z,40
2017-10-28T05:56:15.459Z,36
2017-10-28T05:56:56.025Z,44
2017-10-28T05:57:36.598Z,40
2017-10-28T05:58:17.157Z,36
2017-10-28T05:58:57.746Z,40
2017-10-28T05:59:38.370Z,44
2017-10-28T06:00:18.912Z,52
2017-10-28T06:00:59.574Z,56
2017-10-28T06:01:40.178Z,52
2017-10-28T06:02:20.758Z,56
2017-10-28T06:03:01.373Z,64
2017-10-28T06:03:41.984Z,64
2017-10-28T06:04:22.564Z,56
2017-10-28T06:05:03.161Z,60
2017-10-28T06:05:43.738Z,84
2017-10-28T06:06:24.305Z,68
2017-10-28T06:07:04.895Z,68
2017-10-28T06:07:45.491Z,76
2017-10-28T06:08:26.065Z,96
2017-10-28T06:09:06.638Z,96
2017-10-28T06:09:47.204Z,96
2017-10-28T06:10:27.793Z,88
2017-10-28T06:11:08.377Z,84
2017-10-28T06:11:48.971Z,124
2017-10-28T06:12:29.539Z,136
2017-10-28T06:13:10.107Z,112
2017-10-28T06:13:50.679Z,104
2017-10-28T06:14:31.247Z,112
2017-10-28T06:15:11.826Z,144
2017-10-28T06:15:52.412Z,136
2017-10-28T06:16:32.970Z,180
2017-10-28T06:17:13.641Z,192
2017-10-28T06:17:54.216Z,208
2017-10-28T06:18:34.792Z,204
2017-10-28T06:19:15.366Z,236
2017-10-28T06:19:55.977Z,288
2017-10-28T06:20:36.653Z,260
2017-10-28T06:21:17.274Z,272
2017-10-28T06:21:57.856Z,272
2017-10-28T06:22:38.446Z,248
2017-10-28T06:23:19.018Z,236
2017-10-28T06:23:59.598Z,256
2017-10-28T06:24:40.161Z,276
2017-10-28T06:25:20.730Z,252
2017-10-28T06:26:01.332Z,308
2017-10-28T06:26:41.892Z,356
2017-10-28T06:27:22.459Z,356
2017-10-28T06:28:03.019Z,348
2017-10-28T06:28:43.646Z,332
2017-10-28T06:29:24.306Z,364
2017-10-28T06:30:04.908Z,372
2017-10-28T06:30:45.500Z,348
2017-10-28T06:31:26.078Z,328
2017-10-28T06:32:06.649Z,288
2017-10-28T06:32:47.230Z,284
2017-10-28T06:33:27.809Z,312
2017-10-28T06:34:08.381Z,372
2017-10-28T06:34:48.960Z,388
2017-10-28T06:35:29.509Z,412
2017-10-28T06:36:10.072Z,388
2017-10-28T06:36:50.641Z,428
2017-10-28T06:37:31.223Z,440
2017-10-28T06:38:11.791Z,512
2017-10-28T06:38:52.398Z,532
2017-10-28T06:39:32.975Z,432
2017-10-28T06:40:13.591Z,408
2017-10-28T06:40:54.174Z,360
2017-10-28T06:41:34.807Z,324
2017-10-28T06:42:15.406Z,332
2017-10-28T06:42:56.013Z,380
2017-10-28T06:43:36.590Z,400
2017-10-28T06:44:17.163Z,436
2017-10-28T06:44:57.759Z,384
2017-10-28T06:45:38.333Z,392
2017-10-28T06:46:18.904Z,448
2017-10-28T06:46:59.470Z,484
2017-10-28T06:47:40.047Z,428
2017-10-28T06:48:20.651Z,568
2017-10-28T06:49:01.259Z,556
2017-10-28T06:49:41.838Z,668
2017-10-28T06:50:22.408Z,640
2017-10-28T06:51:03.505Z,632
2017-10-28T06:51:44.253Z,588
2017-10-28T06:52:24.822Z,776
2017-10-28T06:53:05.398Z,776
2017-10-28T06:53:45.974Z,1056
2017-10-28T06:54:26.672Z,876
2017-10-28T06:55:07.245Z,888
2017-10-28T06:55:47.815Z,700
2017-10-28T06:56:28.396Z,660
2017-10-28T06:57:08.969Z,660
2017-10-28T06:57:49.538Z,648
2017-10-28T06:58:30.124Z,716
2017-10-28T06:59:10.719Z,592
2017-10-28T06:59:51.389Z,576
2017-10-28T07:00:31.967Z,476
2017-10-28T07:01:12.535Z,392
2017-10-28T07:01:53.127Z,456
2017-10-28T07:02:41.069Z,476
2017-10-28T07:03:21.662Z,508
2017-10-28T07:04:02.255Z,500
2017-10-28T07:04:42.893Z,464
2017-10-28T07:05:23.513Z,412
2017-10-28T07:06:04.053Z,468
2017-10-28T07:06:44.645Z,436
2017-10-28T07:07:25.212Z,456
2017-10-28T07:08:05.781Z,484
2017-10-28T07:08:46.358Z,480
2017-10-28T07:09:26.949Z,520
2017-10-28T07:10:07.501Z,440
2017-10-28T07:10:48.085Z,368
2017-10-28T07:11:28.670Z,396
2017-10-28T07:12:09.255Z,480
2017-10-28T07:12:49.844Z,440
2017-10-28T07:13:30.418Z,484
2017-10-28T07:14:10.991Z,524
2017-10-28T07:14:51.569Z,588
2017-10-28T07:15:32.144Z,520
2017-10-28T07:16:12.752Z,524
2017-10-28T07:16:53.324Z,480
2017-10-28T07:17:33.922Z,512
2017-10-28T07:18:14.546Z,436
2017-10-28T07:18:55.103Z,452
2017-10-28T07:19:35.669Z,448
2017-10-28T07:20:16.233Z,368
2017-10-28T07:20:56.789Z,336
2017-10-28T07:21:37.348Z,396
2017-10-28T07:22:17.913Z,452
2017-10-28T07:22:58.502Z,552
2017-10-28T07:23:39.097Z,548
2017-10-28T07:24:19.657Z,628
2017-10-28T07:25:00.265Z,700
2017-10-28T07:25:40.863Z,676
2017-10-28T07:26:21.478Z,680
2017-10-28T07:27:02.040Z,748
2017-10-28T07:27:42.618Z,832
2017-10-28T07:28:23.227Z,752
2017-10-28T07:29:03.840Z,780
2017-10-28T07:29:44.439Z,852
2017-10-28T07:30:25.162Z,860
2017-10-28T07:31:05.741Z,944
2017-10-28T07:31:46.310Z,984
2017-10-28T07:32:26.882Z,944
2017-10-28T07:33:07.472Z,928
2017-10-28T07:33:48.072Z,916
2017-10-28T07:34:28.668Z,992
2017-10-28T07:35:09.313Z,924
2017-10-28T07:35:49.922Z,948
2017-10-28T07:36:30.499Z,976
2017-10-28T07:37:11.070Z,916
2017-10-28T07:37:51.643Z,900
2017-10-28T07:38:32.228Z,988
2017-10-28T07:39:12.820Z,1016
2017-10-28T07:39:53.397Z,1024
2017-10-28T07:40:33.997Z,1180
2017-10-28T07:41:14.564Z,1276
2017-10-28T07:41:55.137Z,1168
2017-10-28T07:42:35.725Z,1052
2017-10-28T07:43:16.292Z,1100
2017-10-28T07:43:56.892Z,940
2017-10-28T07:44:37.477Z,900
2017-10-28T07:45:18.050Z,1040
2017-10-28T07:45:58.625Z,1160
2017-10-28T07:46:39.196Z,1280
2017-10-28T07:47:19.781Z,1448
2017-10-28T07:48:00.344Z,1508
2017-10-28T07:48:40.910Z,1700
2017-10-28T07:49:21.469Z,2116
2017-10-28T07:50:02.043Z,2052
2017-10-28T07:50:42.670Z,1808
2017-10-28T07:51:23.249Z,1988
2017-10-28T07:52:03.819Z,1840
2017-10-28T07:52:44.417Z,1528
2017-10-28T07:53:25.010Z,1256
2017-10-28T07:54:05.574Z,1016
2017-10-28T07:54:46.156Z,944
2017-10-28T07:55:26.723Z,988
2017-10-28T07:56:07.331Z,800
2017-10-28T07:56:47.913Z,724
2017-10-28T07:57:28.486Z,684
2017-10-28T07:58:09.073Z,900
2017-10-28T07:58:49.633Z,972
2017-10-28T07:59:30.219Z,1088
2017-10-28T08:00:10.790Z,1360
2017-10-28T08:00:51.373Z,1476
2017-10-28T08:01:31.969Z,1668
2017-10-28T08:02:12.672Z,1828
2017-10-28T08:02:53.289Z,1428
2017-10-28T08:03:33.889Z,1112
2017-10-28T08:04:14.455Z,1060
2017-10-28T08:04:55.063Z,1004
2017-10-28T08:05:35.644Z,1168
2017-10-28T08:06:16.268Z,1392
2017-10-28T08:06:56.908Z,1492
2017-10-28T08:07:37.481Z,1388
2017-10-28T08:08:18.109Z,1512
2017-10-28T08:08:58.829Z,1540
2017-10-28T08:09:39.434Z,1652
2017-10-28T08:10:20.015Z,1372
2017-10-28T08:11:00.656Z,1308
2017-10-28T08:11:41.261Z,1328
2017-10-28T08:12:21.835Z,856
2017-10-28T08:13:02.443Z,656
2017-10-28T08:13:43.062Z,692
2017-10-28T08:14:23.647Z,748
2017-10-28T08:15:04.250Z,764
2017-10-28T08:15:44.819Z,728
2017-10-28T08:16:25.445Z,732
2017-10-28T08:17:06.037Z,948
2017-10-28T08:17:46.632Z,1016
2017-10-28T08:18:27.225Z,972
2017-10-28T08:19:07.828Z,888
2017-10-28T08:19:48.441Z,812
2017-10-28T08:20:29.020Z,652
2017-10-28T08:21:09.633Z,548
2017-10-28T08:21:50.219Z,528
2017-10-28T08:22:30.813Z,516
2017-10-28T08:23:11.388Z,448
2017-10-28T08:23:51.963Z,444
2017-10-28T08:24:32.593Z,464
2017-10-28T08:25:13.168Z,488
2017-10-28T08:25:53.797Z,516
2017-10-28T08:26:34.368Z,520
2017-10-28T08:27:14.962Z,468
2017-10-28T08:27:55.599Z,460
2017-10-28T08:28:36.166Z,432
2017-10-28T08:29:16.822Z,424
2017-10-28T08:29:57.524Z,372
2017-10-28T08:30:38.143Z,308
2017-10-28T08:31:18.717Z,304
2017-10-28T08:31:59.281Z,328
2017-10-28T08:32:39.883Z,368
2017-10-28T08:33:20.460Z,424
2017-10-28T08:34:01.950Z,480
2017-10-28T08:34:42.543Z,636
2017-10-28T08:35:23.157Z,892
2017-10-28T08:36:03.751Z,1112
2017-10-28T08:36:44.338Z,1144
2017-10-28T08:37:24.912Z,1148
2017-10-28T08:38:05.500Z,1372
2017-10-28T08:38:46.072Z,1452
2017-10-28T08:39:26.651Z,1308
2017-10-28T08:40:07.239Z,1396
2017-10-28T08:40:47.818Z,1232
2017-10-28T08:41:28.390Z,1380
2017-10-28T08:42:08.956Z,1476
2017-10-28T08:42:49.521Z,1420
2017-10-28T08:43:30.102Z,1224
2017-10-28T08:44:10.828Z,1144
2017-10-28T08:44:51.468Z,1136
2017-10-28T08:45:32.050Z,1128
2017-10-28T08:46:12.611Z,1052
2017-10-28T08:46:53.195Z,1148
2017-10-28T08:47:33.777Z,1320
2017-10-28T08:48:14.341Z,1224
2017-10-28T08:48:54.909Z,1308
2017-10-28T08:49:35.533Z,1420
2017-10-28T08:50:16.099Z,1352
2017-10-28T08:50:56.749Z,1268
2017-10-28T08:51:37.296Z,1196
2017-10-28T08:52:17.881Z,1300
2017-10-28T08:52:58.449Z,1400
2017-10-28T08:53:39.105Z,1392
2017-10-28T08:54:19.674Z,1496
2017-10-28T08:55:00.292Z,1540
2017-10-28T08:55:40.876Z,1596
2017-10-28T08:56:21.462Z,1556
2017-10-28T08:57:02.055Z,1492
2017-10-28T08:57:42.700Z,1456
2017-10-28T08:58:23.251Z,1372
2017-10-28T08:59:03.831Z,1148
2017-10-28T08:59:44.415Z,1244
2017-10-28T09:00:25.045Z,1288
2017-10-28T09:01:05.619Z,1256
2017-10-28T09:01:46.200Z,1280
2017-10-28T09:02:26.785Z,1504
2017-10-28T09:03:07.379Z,1324
2017-10-28T09:03:47.950Z,924
2017-10-28T09:04:28.559Z,876
2017-10-28T09:05:09.142Z,828
2017-10-28T09:05:49.760Z,668
2017-10-28T09:06:30.414Z,704
2017-10-28T09:07:10.988Z,944
2017-10-28T09:07:51.584Z,1004
2017-10-28T09:08:32.205Z,804
2017-10-28T09:09:12.791Z,776
2017-10-28T09:09:53.440Z,764
2017-10-28T09:10:34.022Z,736
2017-10-28T09:11:14.614Z,744
2017-10-28T09:11:55.221Z,768
2017-10-28T09:12:35.817Z,772
2017-10-28T09:13:16.498Z,796
2017-10-28T09:13:57.127Z,884
2017-10-28T09:14:37.724Z,996
2017-10-28T09:15:18.372Z,1160
2017-10-28T09:15:58.926Z,1124
2017-10-28T09:16:39.515Z,1068
2017-10-28T09:17:20.118Z,1088
2017-10-28T09:18:00.700Z,992
2017-10-28T09:18:41.302Z,960
2017-10-28T09:19:21.860Z,976
2017-10-28T09:20:02.492Z,1064
2017-10-28T09:20:43.065Z,1132
2017-10-28T09:21:23.686Z,1372
2017-10-28T09:22:04.269Z,1520
2017-10-28T09:22:44.866Z,1604
2017-10-28T09:23:25.450Z,1984
2017-10-28T09:24:06.012Z,2204
2017-10-28T09:24:46.607Z,2124
2017-10-28T09:25:27.223Z,1916
2017-10-28T09:26:07.821Z,2020
2017-10-28T09:26:48.458Z,1984
2017-10-28T09:27:29.040Z,2028
2017-10-28T09:28:09.642Z,2420
2017-10-28T09:28:50.196Z,2612
2017-10-28T09:29:30.769Z,2476
2017-10-28T09:30:11.343Z,2244
2017-10-28T09:30:51.907Z,1824
2017-10-28T09:31:32.538Z,1540
2017-10-28T09:32:13.123Z,1384
2017-10-28T09:32:53.688Z,1328
2017-10-28T09:33:34.282Z,1192
2017-10-28T09:34:14.846Z,1260
2017-10-28T09:34:55.448Z,1316
2017-10-28T09:35:36.065Z,1376
2017-10-28T09:36:16.655Z,1452
2017-10-28T09:36:57.240Z,1520
2017-10-28T09:37:37.816Z,1448
2017-10-28T09:38:18.400Z,1244
2017-10-28T09:38:58.970Z,1360
2017-10-28T09:39:39.560Z,1424
2017-10-28T09:40:20.141Z,1460
2017-10-28T09:41:00.778Z,1552
2017-10-28T09:41:41.354Z,1700
2017-10-28T09:42:21.932Z,1796